Time;durP1;ratioP1;P1;durP2;ratioP2;P2;SDS_P1;SDS_P2;PMS_P1;PMS_P2;Temp;Humidity;BMP_temperature;BMP_pressure;BME280_temperature;BME280_humidity;BME280_pressure;Samples;Min_cycle;Max_cycle;Signal;HPM_P1;HPM_P2
2022/02/25 00:02:14;;;;;;;0.98;0.98;;;;;;;10.12;65.62;99530.39;2985087;79;20995;-66
2022/02/25 00:06:19;;;;;;;0.85;0.53;;;;;;;9.72;62.78;99541.53;2985309;79;21022;-67
2022/02/25 00:10:21;;;;;;;0.28;0.28;;;;;;;9.38;62.03;99589.20;2984901;79;21054;-65
2022/02/25 00:14:23;;;;;;;0.20;0.20;;;;;;;8.92;61.95;99619.71;2985118;79;21022;-66
2022/02/25 00:18:28;;;;;;;0.30;0.20;;;;;;;8.78;61.72;99630.17;2982562;79;21080;-66
2022/02/25 00:22:29;;;;;;;1.80;0.98;;;;;;;8.49;62.01;99649.36;2980457;78;21018;-66
2022/02/25 00:26:31;;;;;;;0.37;0.35;;;;;;;8.47;64.04;99657.42;2984442;79;21034;-65
2022/02/25 00:30:33;;;;;;;0.33;0.33;;;;;;;8.27;64.95;99676.31;2984346;79;20983;-66
2022/02/25 00:34:34;;;;;;;2.00;0.40;;;;;;;7.91;65.86;99740.08;2984419;79;21025;-65
2022/02/25 00:38:36;;;;;;;3.05;0.72;;;;;;;7.63;67.89;99693.30;2984352;79;21049;-66
2022/02/25 00:42:38;;;;;;;1.00;0.70;;;;;;;7.35;69.57;99695.94;2984047;79;20975;-66
2022/02/25 00:46:39;;;;;;;0.40;0.40;;;;;;;7.14;71.04;99723.09;2983050;79;21017;-66
2022/02/25 00:50:41;;;;;;;0.37;0.30;;;;;;;6.93;71.38;99719.81;2978330;78;21018;-66
2022/02/25 00:54:44;;;;;;;0.57;0.57;;;;;;;6.86;72.78;99735.28;2978292;78;21022;-67
2022/02/25 00:58:45;;;;;;;0.23;0.20;;;;;;;6.66;74.66;99761.05;2984679;79;21104;-66
2022/02/25 01:02:49;;;;;;;0.20;0.20;;;;;;;6.73;76.29;99756.98;2978709;78;21042;-66
2022/02/25 01:06:51;;;;;;;1.75;0.30;;;;;;;6.37;77.45;99756.95;2978848;78;20964;-66
2022/02/25 01:10:52;;;;;;;1.00;0.20;;;;;;;6.35;77.85;99741.69;2973701;78;21047;-65
2022/02/25 01:14:54;;;;;;;0.30;0.30;;;;;;;6.24;77.72;99771.98;2975682;78;21002;-65
2022/02/25 01:18:55;;;;;;;0.57;0.20;;;;;;;6.25;78.86;99783.77;2975138;79;20995;-65
2022/02/25 01:22:57;;;;;;;0.17;0.17;;;;;;;6.27;78.77;99769.98;2983289;78;21026;-66
2022/02/25 01:26:59;;;;;;;0.30;0.30;;;;;;;6.22;78.27;99769.47;2980957;79;21050;-65
2022/02/25 01:31:02;;;;;;;1.37;0.30;;;;;;;6.37;78.71;99766.66;2971661;78;21028;-65
2022/02/25 01:35:04;;;;;;;2.08;0.65;;;;;;;6.41;78.26;99770.78;2983454;78;20997;-65
2022/02/25 01:39:06;;;;;;;0.95;0.68;;;;;;;6.49;78.70;99790.05;2945847;79;21010;-65
2022/02/25 01:43:08;;;;;;;0.40;0.40;;;;;;;6.50;78.49;99789.91;2949501;79;21047;-66
2022/02/25 01:47:12;;;;;;;1.62;0.60;;;;;;;6.42;78.30;99787.83;2996419;79;21006;-65
2022/02/25 01:51:13;;;;;;;0.20;0.20;;;;;;;6.28;78.62;99791.94;3007185;79;21089;-66
2022/02/25 01:55:15;;;;;;;0.50;0.50;;;;;;;6.20;78.88;99796.94;2984055;79;20949;-65
2022/02/25 01:59:17;;;;;;;0.82;0.40;;;;;;;6.16;79.26;99808.19;2984079;79;20976;-66
2022/02/25 02:03:19;;;;;;;0.42;0.42;;;;;;;6.06;79.94;99811.95;2983898;79;20996;-66
2022/02/25 02:07:20;;;;;;;0.30;0.30;;;;;;;5.93;79.75;99797.92;2983632;79;21043;-65
2022/02/25 02:11:32;;;;;;;0.20;0.20;;;;;;;5.85;80.46;99795.32;2983536;79;21063;-66
2022/02/25 02:15:34;;;;;;;1.98;0.30;;;;;;;5.79;80.98;99798.41;2983093;79;21059;-66
2022/02/25 02:19:36;;;;;;;1.10;0.40;;;;;;;5.75;80.82;99806.17;2983529;78;21528;-66
2022/02/25 02:23:38;;;;;;;0.30;0.20;;;;;;;5.72;81.12;99818.27;2975295;78;21038;-66
2022/02/25 02:31:55;;;;;;;1.20;0.60;;;;;;;5.95;80.31;99846.17;2977595;79;20996;-65
2022/02/25 02:35:56;;;;;;;1.50;0.33;;;;;;;5.92;80.12;99850.35;2971356;80;20969;-64
2022/02/25 02:39:58;;;;;;;0.78;0.42;;;;;;;5.99;79.93;99863.48;2971517;80;20976;-65
2022/02/25 02:43:59;;;;;;;1.62;0.78;;;;;;;6.00;79.79;99875.27;2971529;79;20999;-66
2022/02/25 02:48:01;;;;;;;0.50;0.40;;;;;;;6.04;79.51;99871.13;2981663;79;21051;-65
2022/02/25 02:52:03;;;;;;;0.70;0.60;;;;;;;6.05;79.42;99884.70;2984128;79;21057;-65
2022/02/25 02:56:06;;;;;;;1.30;1.05;;;;;;;6.01;79.69;99893.30;2984876;79;21065;-66
2022/02/25 03:00:08;;;;;;;1.37;0.50;;;;;;;5.97;79.59;99891.80;2980876;79;20985;-66
2022/02/25 03:04:12;;;;;;;0.70;0.65;;;;;;;5.79;79.69;99894.74;2975736;79;21022;-65
2022/02/25 03:08:14;;;;;;;0.88;0.55;;;;;;;5.65;79.93;99903.60;2984547;79;21077;-65
2022/02/25 03:12:15;;;;;;;0.65;0.65;;;;;;;5.58;80.36;99913.72;2984653;79;21049;-65
2022/02/25 03:16:17;;;;;;;2.65;1.12;;;;;;;5.69;80.18;99918.27;2984433;79;21089;-65
2022/02/25 03:20:19;;;;;;;3.25;0.72;;;;;;;5.73;80.37;99929.48;2984212;79;21088;-65
2022/02/25 03:24:20;;;;;;;1.75;1.47;;;;;;;5.72;80.36;99937.03;2984411;79;21017;-65
2022/02/25 03:28:22;;;;;;;1.20;1.10;;;;;;;5.71;80.05;99947.22;2984480;79;21101;-65
2022/02/25 03:32:24;;;;;;;2.50;2.30;;;;;;;5.73;79.93;99949.27;2984297;79;21021;-65
2022/02/25 03:36:25;;;;;;;3.02;1.82;;;;;;;5.73;79.66;99971.70;2983017;78;21021;-65
2022/02/25 03:40:27;;;;;;;2.05;1.42;;;;;;;5.69;79.07;99969.73;2984295;79;21023;-65
2022/02/25 03:44:29;;;;;;;3.25;2.83;;;;;;;5.75;78.59;99976.41;2984250;79;21038;-65
2022/02/25 03:48:30;;;;;;;2.27;2.17;;;;;;;5.79;78.16;99973.92;2976096;79;21028;-66
2022/02/25 03:52:33;;;;;;;2.60;2.40;;;;;;;5.83;78.24;100005.77;2969467;79;21058;-65
2022/02/25 03:56:34;;;;;;;12.93;2.12;;;;;;;5.82;78.80;100037.07;2970884;80;20988;-65
2022/02/25 04:00:36;;;;;;;2.87;2.15;;;;;;;5.23;80.78;100017.59;2970618;79;20999;-66
2022/02/25 04:04:38;;;;;;;1.62;1.52;;;;;;;4.69;82.72;100029.22;2974166;79;21037;-65
2022/02/25 04:08:40;;;;;;;2.22;1.72;;;;;;;4.41;86.21;100055.07;2966956;79;21041;-66
2022/02/25 04:12:41;;;;;;;2.65;1.55;;;;;;;4.35;87.30;100064.21;2930136;81;21108;-66
2022/02/25 04:16:43;;;;;;;1.32;1.22;;;;;;;4.27;86.58;100061.16;2930210;81;20962;-66
2022/02/25 04:20:44;;;;;;;3.05;2.33;;;;;;;4.18;87.48;100068.30;2936201;79;21045;-68
2022/02/25 04:24:46;;;;;;;2.62;2.42;;;;;;;4.05;88.13;100077.39;2930498;81;21578;-68
2022/02/25 04:28:47;;;;;;;2.33;2.02;;;;;;;4.04;87.75;100071.75;2930239;81;21546;-67
2022/02/25 04:32:49;;;;;;;2.87;2.67;;;;;;;4.11;87.56;100069.12;2929986;81;21033;-68
2022/02/25 04:36:50;;;;;;;3.40;2.58;;;;;;;4.13;87.60;100074.70;2929939;81;20972;-68
2022/02/25 04:40:52;;;;;;;2.77;2.55;;;;;;;4.25;87.07;100065.67;2930108;81;21026;-68
2022/02/25 04:44:54;;;;;;;3.37;3.10;;;;;;;4.41;86.61;100075.69;2930033;81;21133;-68
2022/02/25 04:48:55;;;;;;;3.72;3.08;;;;;;;4.50;86.39;100074.75;2929321;81;21033;-67
2022/02/25 04:52:57;;;;;;;3.05;2.62;;;;;;;4.61;85.47;100081.55;2929816;81;21097;-68
2022/02/25 04:56:59;;;;;;;14.18;3.00;;;;;;;4.56;83.42;100085.77;2930009;81;21042;-68
2022/02/25 05:01:04;;;;;;;2.67;2.55;;;;;;;4.60;82.30;100076.36;2950488;78;21054;-68
2022/02/25 05:05:09;;;;;;;2.33;2.05;;;;;;;4.50;81.00;100091.87;2982283;79;21039;-67
2022/02/25 05:09:10;;;;;;;3.12;2.12;;;;;;;4.43;80.54;100107.22;2982032;79;21034;-67
2022/02/25 05:13:12;;;;;;;4.75;2.27;;;;;;;4.35;80.11;100112.93;2979227;78;21021;-67
2022/02/25 05:21:29;;;;;;;2.95;2.12;;;;;;;4.20;79.92;100134.40;2982430;79;21035;-67
2022/02/25 05:25:33;;;;;;;7.00;2.85;;;;;;;4.16;80.28;100142.09;2982461;79;21016;-67
2022/02/25 05:29:35;;;;;;;6.45;3.05;;;;;;;4.13;79.49;100146.23;2982786;79;21048;-67
2022/02/25 05:33:36;;;;;;;5.10;2.62;;;;;;;4.27;79.28;100162.55;2981644;79;21039;-68
2022/02/25 05:37:40;;;;;;;4.00;1.62;;;;;;;4.26;78.83;100156.90;2981169;78;21118;-67
2022/02/25 05:41:41;;;;;;;7.50;3.33;;;;;;;4.18;78.69;100169.67;2981382;79;21022;-67
2022/02/25 05:45:43;;;;;;;7.15;2.75;;;;;;;4.04;78.66;100173.09;2982123;79;21018;-67
2022/02/25 05:49:45;;;;;;;2.10;1.50;;;;;;;3.99;79.24;100183.88;2982310;79;21030;-67
2022/02/25 05:53:46;;;;;;;3.87;2.58;;;;;;;3.89;79.22;100196.70;2977827;78;21042;-67
2022/02/25 05:57:50;;;;;;;5.17;1.98;;;;;;;3.81;79.61;100204.14;2969453;79;21002;-67
2022/02/25 06:01:51;;;;;;;1.98;1.45;;;;;;;3.70;80.09;100210.86;2983605;79;21089;-66
2022/02/25 06:05:53;;;;;;;4.53;2.92;;;;;;;3.70;79.44;100224.02;2983489;79;20983;-67
2022/02/25 06:09:55;;;;;;;9.03;3.83;;;;;;;3.75;79.75;100229.03;2973993;78;21490;-67
2022/02/25 06:13:56;;;;;;;4.47;3.60;;;;;;;3.75;79.98;100229.03;2983380;79;21553;-68
2022/02/25 06:17:58;;;;;;;6.03;4.33;;;;;;;3.71;80.03;100238.00;2983372;79;21043;-67
2022/02/25 06:22:00;;;;;;;11.78;4.58;;;;;;;3.81;80.18;100245.80;2983503;79;21524;-67
2022/02/25 06:26:02;;;;;;;8.38;5.30;;;;;;;3.92;79.94;100243.89;2983194;79;21053;-67
2022/02/25 06:30:08;;;;;;;7.28;3.92;;;;;;;3.94;80.29;100261.77;2983372;79;21085;-67
2022/02/25 06:34:10;;;;;;;3.55;2.83;;;;;;;3.97;80.78;100261.59;2941662;79;21006;-67
2022/02/25 06:38:11;;;;;;;3.87;2.37;;;;;;;4.00;81.31;100271.95;2962722;80;21032;-67
2022/02/25 06:42:13;;;;;;;4.97;3.77;;;;;;;4.07;81.27;100279.05;2966803;80;21036;-68
2022/02/25 06:46:14;;;;;;;8.18;4.10;;;;;;;4.19;81.13;100277.52;2966199;80;21082;-68
2022/02/25 06:50:18;;;;;;;8.28;5.78;;;;;;;4.27;80.02;100281.05;2966490;80;21028;-67
2022/02/25 06:54:19;;;;;;;6.87;5.28;;;;;;;4.42;79.90;100301.27;2966633;80;21037;-67
2022/02/25 06:58:21;;;;;;;25.82;18.57;;;;;;;4.55;78.49;100308.48;2966618;80;21001;-68
2022/02/25 07:02:22;;;;;;;20.08;9.93;;;;;;;4.70;77.19;100301.49;2966644;80;21075;-67
2022/02/25 07:06:24;;;;;;;8.60;5.03;;;;;;;4.77;77.33;100323.08;2966793;80;21059;-68
2022/02/25 07:10:26;;;;;;;8.70;5.17;;;;;;;4.77;77.46;100348.11;2966424;80;21416;-68
2022/02/25 07:14:27;;;;;;;18.40;16.17;;;;;;;4.83;77.83;100310.86;2966512;80;21024;-67
2022/02/25 07:18:30;;;;;;;8.35;6.03;;;;;;;4.83;77.22;100331.48;2965526;80;21110;-67
2022/02/25 07:22:31;;;;;;;16.00;9.30;;;;;;;4.91;77.24;100336.78;2966156;80;21032;-68
2022/02/25 07:26:33;;;;;;;12.20;10.32;;;;;;;4.97;77.09;100330.69;2974481;78;21081;-67
2022/02/25 07:30:36;;;;;;;5.80;3.60;;;;;;;5.03;77.39;100342.67;2975151;79;21077;-68
2022/02/25 07:34:39;;;;;;;7.22;4.40;;;;;;;5.10;76.43;100339.19;2972956;79;21039;-68
2022/02/25 07:38:40;;;;;;;4.80;3.45;;;;;;;5.15;76.14;100347.70;2966376;80;21000;-68
2022/02/25 07:42:43;;;;;;;7.65;3.55;;;;;;;5.18;75.75;100370.39;2975466;79;21100;-68
2022/02/25 07:46:45;;;;;;;8.53;2.95;;;;;;;5.33;75.86;100364.23;2983383;79;21014;-67
2022/02/25 07:50:48;;;;;;;4.28;3.20;;;;;;;5.24;73.72;100362.98;2982970;79;21010;-68
2022/02/25 07:54:50;;;;;;;9.00;5.08;;;;;;;5.48;74.50;100373.50;2917517;80;21302;-68
2022/02/25 07:58:52;;;;;;;5.80;3.17;;;;;;;5.54;74.37;100377.09;2907277;80;21032;-68
2022/02/25 08:02:54;;;;;;;6.55;3.15;;;;;;;5.49;73.95;100380.48;2904212;82;21046;-68
2022/02/25 08:06:56;;;;;;;7.55;4.55;;;;;;;5.61;73.27;100406.61;2904391;82;21050;-67
2022/02/25 08:10:57;;;;;;;4.55;3.67;;;;;;;5.68;73.05;100403.97;2905096;82;21416;-68
2022/02/25 08:14:59;;;;;;;4.90;3.37;;;;;;;5.74;72.89;100410.23;2904432;82;21039;-67
2022/02/25 08:19:01;;;;;;;9.53;3.83;;;;;;;5.90;73.39;100414.59;2905014;80;21035;-67
2022/02/25 08:23:04;;;;;;;5.70;3.45;;;;;;;5.98;71.65;100401.77;2919730;80;21032;-68
2022/02/25 08:27:06;;;;;;;6.92;4.20;;;;;;;5.98;71.26;100430.33;2942014;80;21035;-68
2022/02/25 08:31:12;;;;;;;30.32;4.87;;;;;;;6.02;70.97;100409.06;2955789;80;21058;-67
2022/02/25 08:35:11;;;;;;;4.85;3.02;;;;;;;6.01;70.90;100406.89;2954992;80;21064;-68
2022/02/25 08:39:12;;;;;;;6.62;3.33;;;;;;;6.10;71.45;100427.47;2939520;80;20999;-67
2022/02/25 08:43:15;;;;;;;5.75;2.77;;;;;;;6.13;70.42;100418.03;2941364;80;21044;-67
2022/02/25 08:47:17;;;;;;;6.22;4.05;;;;;;;6.26;70.90;100431.79;2922897;80;21031;-67
2022/02/25 08:51:18;;;;;;;4.37;3.25;;;;;;;6.45;70.00;100423.59;2956781;79;21063;-67
2022/02/25 08:55:22;;;;;;;3.65;2.98;;;;;;;6.53;68.61;100436.33;2965414;79;21089;-68
2022/02/25 08:59:23;;;;;;;7.35;2.83;;;;;;;6.61;68.10;100422.14;2971497;80;20972;-68
2022/02/25 09:03:25;;;;;;;6.00;3.55;;;;;;;6.61;67.64;100438.48;2977736;78;21023;-67
2022/02/25 09:07:26;;;;;;;4.35;3.12;;;;;;;6.65;68.04;100428.92;2979736;79;21006;-67
2022/02/25 09:11:28;;;;;;;4.50;3.33;;;;;;;6.63;68.12;100441.39;2979477;78;21041;-67
2022/02/25 09:15:30;;;;;;;13.80;2.92;;;;;;;6.56;67.09;100447.53;2971679;79;21069;-67
2022/02/25 09:19:32;;;;;;;5.03;2.85;;;;;;;6.64;67.13;100440.45;2982775;79;21057;-67
2022/02/25 09:23:33;;;;;;;2.95;2.67;;;;;;;6.74;65.85;100442.53;2976497;78;21034;-67
2022/02/25 09:27:35;;;;;;;5.65;2.02;;;;;;;6.89;65.73;100447.30;2977618;79;21030;-68
2022/02/25 09:31:36;;;;;;;5.10;2.75;;;;;;;6.79;65.32;100468.20;2984004;78;21075;-67
2022/02/25 09:35:38;;;;;;;4.72;2.10;;;;;;;6.86;64.06;100444.37;2984499;79;21018;-68
2022/02/25 09:39:39;;;;;;;4.70;2.45;;;;;;;6.99;64.46;100451.08;2984625;79;21045;-67
2022/02/25 09:43:42;;;;;;;3.77;1.80;;;;;;;7.15;63.58;100457.05;2977316;78;21046;-67
2022/02/25 09:47:45;;;;;;;4.12;2.47;;;;;;;7.24;64.24;100474.12;2932109;81;21096;-67
2022/02/25 09:51:48;;;;;;;7.55;2.12;;;;;;;7.37;62.35;100470.23;2958193;78;21049;-68
2022/02/25 09:55:50;;;;;;;5.70;3.22;;;;;;;7.29;62.20;100481.77;2984657;79;21108;-67
2022/02/25 09:59:52;;;;;;;7.33;2.70;;;;;;;7.11;62.08;100478.53;2984763;79;21065;-67
2022/02/25 10:03:53;;;;;;;4.67;2.20;;;;;;;6.91;62.66;100496.52;2984446;79;21014;-67
2022/02/25 10:07:55;;;;;;;6.35;2.40;;;;;;;7.09;63.68;100496.30;2984106;79;21593;-67
2022/02/25 10:12:12;;;;;;;5.67;2.35;;;;;;;7.15;62.01;100480.86;2982734;78;21073;-67
2022/02/25 10:16:17;;;;;;;5.97;2.98;;;;;;;7.08;62.34;100480.05;2902067;81;21058;-67
2022/02/25 10:20:18;;;;;;;3.50;2.15;;;;;;;6.95;62.50;100479.50;2903560;79;21559;-67
2022/02/25 10:24:20;;;;;;;6.87;2.20;;;;;;;6.86;62.54;100488.86;2982748;78;20998;-68
2022/02/25 10:28:33;;;;;;;6.95;2.17;;;;;;;6.71;60.52;100500.40;2967763;79;21003;-68
2022/02/25 10:32:41;;;;;;;1.72;1.62;;;;;;;6.69;61.45;100496.55;2908559;79;21071;-67
2022/02/25 10:36:53;;;;;;;5.30;1.85;;;;;;;6.54;60.99;100500.13;2932320;81;21071;-67
2022/02/25 10:40:55;;;;;;;4.58;1.72;;;;;;;6.40;60.44;100476.72;3002620;79;20991;-67
2022/02/25 10:45:00;;;;;;;4.12;1.65;;;;;;;6.34;59.29;100502.66;2983956;79;21052;-67
2022/02/25 10:49:08;;;;;;;4.20;1.35;;;;;;;6.41;60.07;100498.23;2979162;79;21030;-67
2022/02/25 10:53:09;;;;;;;3.25;2.12;;;;;;;6.42;59.41;100489.84;2980686;79;21022;-68
2022/02/25 10:57:14;;;;;;;4.53;1.55;;;;;;;6.47;61.12;100502.75;2984315;79;21053;-67
2022/02/25 11:01:19;;;;;;;2.00;1.30;;;;;;;6.34;59.32;100499.56;2981903;78;21075;-67
2022/02/25 11:05:26;;;;;;;1.60;1.42;;;;;;;6.44;60.57;100509.09;2977034;79;21559;-67
2022/02/25 11:09:28;;;;;;;3.17;1.65;;;;;;;6.31;59.50;100505.03;2975069;79;20995;-67
2022/02/25 11:13:31;;;;;;;2.12;1.35;;;;;;;6.40;60.89;100503.14;2972072;78;21089;-67
2022/02/25 11:17:35;;;;;;;10.32;1.85;;;;;;;6.38;59.94;100509.45;2984433;79;21516;-67
2022/02/25 11:21:38;;;;;;;3.75;1.75;;;;;;;6.29;60.44;100518.81;2981337;79;21027;-67
2022/02/25 11:25:42;;;;;;;12.63;2.15;;;;;;;6.35;59.53;100513.14;2977082;79;21090;-67
2022/02/25 11:30:04;;;;;;;5.78;1.37;;;;;;;6.60;60.09;100512.13;2975925;79;21007;-67
2022/02/25 11:34:05;;;;;;;0.95;0.88;;;;;;;6.74;57.78;100503.33;2935033;80;21442;-67
2022/02/25 11:38:10;;;;;;;5.08;1.92;;;;;;;6.81;59.65;100499.35;2971951;80;21650;-67
2022/02/25 11:42:18;;;;;;;3.22;2.55;;;;;;;7.06;60.85;100514.98;2980132;78;21029;-67
2022/02/25 11:46:24;;;;;;;3.20;1.80;;;;;;;7.13;57.55;100501.77;2984354;79;21078;-67
2022/02/25 11:50:37;;;;;;;5.17;1.00;;;;;;;7.56;58.71;100497.64;2941192;78;20975;-67
2022/02/25 11:54:46;;;;;;;2.00;1.60;;;;;;;8.10;56.34;100491.88;2916614;81;21045;-67
2022/02/25 11:58:53;;;;;;;1.32;1.10;;;;;;;8.35;52.94;100492.83;2938408;80;21003;-67
2022/02/25 12:03:09;;;;;;;2.62;1.37;;;;;;;8.26;53.92;100473.60;2943096;80;21092;-68
2022/02/25 12:07:19;;;;;;;1.22;0.98;;;;;;;8.03;54.88;100504.31;2926429;80;21005;-67
2022/02/25 12:11:34;;;;;;;0.72;0.72;;;;;;;8.00;53.53;100492.11;2905474;82;21052;-67
2022/02/25 12:15:42;;;;;;;4.00;1.30;;;;;;;8.00;53.78;100468.27;2905629;82;21044;-67
2022/02/25 12:19:51;;;;;;;1.62;1.52;;;;;;;8.14;53.97;100492.03;2905783;82;21021;-67
2022/02/25 12:23:59;;;;;;;2.20;1.87;;;;;;;8.16;56.27;100499.89;2942644;80;22212;-68
2022/02/25 12:27:56;;;;;;;4.80;1.52;;;;;;;8.10;55.91;100489.23;2939863;80;21017;-68
2022/02/25 12:31:58;;;;;;;3.60;1.30;;;;;;;7.82;56.37;100488.92;2936901;80;21050;-67
2022/02/25 12:36:04;;;;;;;5.05;1.45;;;;;;;7.47;57.05;100496.94;2956824;80;21109;-67
2022/02/25 12:40:10;;;;;;;3.62;2.05;;;;;;;7.38;55.87;100487.80;2941031;80;21058;-67
2022/02/25 12:44:27;;;;;;;1.73;1.33;;;;;;;7.39;55.50;100489.50;2949319;80;21036;-67
2022/02/25 12:48:29;;;;;;;4.78;1.87;;;;;;;7.46;55.43;100496.53;2938911;80;21054;-67
2022/02/25 12:52:31;;;;;;;1.85;0.90;;;;;;;7.72;56.18;100509.88;2930165;80;21267;-67
2022/02/25 12:56:43;;;;;;;4.10;1.60;;;;;;;7.76;55.58;100509.17;2927970;80;21129;-68
2022/02/25 13:01:00;;;;;;;3.60;2.30;;;;;;;7.84;55.67;100497.12;2928803;81;20995;-67
2022/02/25 13:05:03;;;;;;;3.47;2.33;;;;;;;7.69;55.10;100500.81;2929095;81;21057;-67
2022/02/25 13:09:09;;;;;;;3.00;1.62;;;;;;;7.65;57.22;100503.27;2873835;83;21034;-68
2022/02/25 13:13:11;;;;;;;1.42;1.12;;;;;;;7.64;56.79;100506.41;2916264;80;21041;-68
2022/02/25 13:17:19;;;;;;;2.17;1.50;;;;;;;7.74;56.31;100510.61;2938629;80;21044;-68
2022/02/25 13:21:21;;;;;;;3.58;1.32;;;;;;;7.96;57.33;100508.72;2943722;80;21019;-68
2022/02/25 13:25:24;;;;;;;6.47;1.72;;;;;;;8.21;54.45;100504.84;2940055;80;21006;-67
2022/02/25 13:29:29;;;;;;;3.80;1.70;;;;;;;8.39;53.77;100505.41;2929195;80;21066;-67
2022/02/25 13:33:31;;;;;;;4.47;1.00;;;;;;;8.63;54.99;100506.83;2944931;80;21015;-66
2022/02/25 13:37:52;;;;;;;3.85;1.22;;;;;;;8.70;53.64;100500.63;2931381;80;21016;-68
2022/02/25 13:41:54;;;;;;;6.05;2.15;;;;;;;8.59;51.96;100486.80;2934189;80;21070;-68
2022/02/25 13:46:01;;;;;;;18.62;2.15;;;;;;;8.46;52.26;100488.59;2941676;80;21018;-67
2022/02/25 13:54:29;;;;;;;1.50;0.90;;;;;;;8.41;53.41;100479.14;2953559;79;21058;-70
2022/02/25 13:58:30;;;;;;;4.03;1.87;;;;;;;8.29;53.74;100471.56;2915577;79;21031;-68
2022/02/25 14:02:37;;;;;;;3.55;1.25;;;;;;;8.34;53.49;100480.53;2972057;80;21002;-69
2022/02/25 14:06:53;;;;;;;2.62;1.95;;;;;;;8.39;53.96;100482.38;2972631;80;21042;-68
2022/02/25 14:10:54;;;;;;;3.50;1.20;;;;;;;8.47;53.21;100478.36;2973006;78;21019;-68
2022/02/25 14:14:56;;;;;;;3.70;1.95;;;;;;;8.32;53.95;100482.45;3017152;79;21046;-69
2022/02/25 14:19:16;;;;;;;12.58;2.10;;;;;;;8.40;54.55;100486.72;3004263;79;21053;-68
2022/02/25 14:23:18;;;;;;;1.72;0.88;;;;;;;8.49;52.63;100486.56;3002026;79;21003;-67
2022/02/25 14:27:21;;;;;;;1.37;1.27;;;;;;;8.35;51.82;100472.95;2917280;79;21502;-67
2022/02/25 14:31:26;;;;;;;3.58;1.37;;;;;;;8.40;53.84;100484.07;2939173;80;21038;-68
2022/02/25 14:35:28;;;;;;;2.17;1.30;;;;;;;8.35;52.83;100478.71;2941788;80;21042;-67
2022/02/25 14:39:30;;;;;;;3.55;1.50;;;;;;;8.30;52.88;100472.43;2985884;79;21042;-67
2022/02/25 14:43:32;;;;;;;0.95;0.88;;;;;;;8.37;53.16;100486.11;2984822;79;21530;-67
2022/02/25 14:47:33;;;;;;;3.72;1.32;;;;;;;8.46;53.31;100488.59;3004327;79;20996;-68
2022/02/25 14:51:35;;;;;;;3.05;1.25;;;;;;;8.50;51.82;100492.75;2985188;79;21006;-69
2022/02/25 14:55:37;;;;;;;3.15;1.47;;;;;;;8.43;52.38;100475.90;2961917;79;21015;-68
2022/02/25 14:59:41;;;;;;;3.17;1.52;;;;;;;8.48;54.78;100498.13;2915151;81;21050;-68
2022/02/25 15:03:43;;;;;;;3.85;1.10;;;;;;;8.48;53.11;100495.97;2907753;81;21377;-66
2022/02/25 15:07:46;;;;;;;3.90;1.85;;;;;;;8.48;52.89;100489.34;2893167;82;21055;-68
2022/02/25 15:11:48;;;;;;;2.75;0.80;;;;;;;8.53;52.85;100487.23;2937698;80;20967;-68
2022/02/25 15:15:49;;;;;;;4.75;1.65;;;;;;;8.60;52.38;100495.12;2957095;80;21042;-65
2022/02/25 15:19:51;;;;;;;4.15;2.02;;;;;;;8.67;52.97;100480.48;2957074;80;21011;-65
2022/02/25 15:23:52;;;;;;;4.62;1.50;;;;;;;8.72;53.54;100493.40;2957357;80;21050;-64
2022/02/25 15:27:54;;;;;;;3.45;1.90;;;;;;;8.73;54.98;100490.28;2956580;80;21042;-65
2022/02/25 15:31:55;;;;;;;3.25;1.60;;;;;;;8.57;53.86;100495.34;2956698;80;21039;-65
2022/02/25 15:35:57;;;;;;;4.08;1.87;;;;;;;8.53;53.90;100500.49;2957611;80;21040;-64
2022/02/25 15:39:58;;;;;;;2.90;1.65;;;;;;;8.49;54.15;100490.53;2957196;80;21066;-66
2022/02/25 15:43:59;;;;;;;5.15;1.62;;;;;;;8.36;55.31;100502.48;2949658;80;21058;-66
2022/02/25 15:48:01;;;;;;;2.77;1.62;;;;;;;8.23;55.44;100501.62;2954221;80;21097;-67
2022/02/25 15:52:04;;;;;;;5.58;1.98;;;;;;;8.09;54.36;100502.11;2941792;80;21056;-66
2022/02/25 15:56:08;;;;;;;7.00;2.98;;;;;;;8.00;55.59;100506.22;2967604;79;20960;-67
2022/02/25 16:00:11;;;;;;;4.72;2.92;;;;;;;7.86;56.32;100515.11;2932594;81;21038;-68
2022/02/25 16:04:13;;;;;;;7.92;3.02;;;;;;;7.68;57.39;100523.78;2951250;80;21039;-68
2022/02/25 16:08:14;;;;;;;6.55;3.52;;;;;;;7.50;57.84;100523.66;2927153;79;21022;-65
2022/02/25 16:12:17;;;;;;;6.35;2.80;;;;;;;7.34;58.71;100533.91;2951282;80;21054;-65
2022/02/25 16:16:19;;;;;;;6.25;3.92;;;;;;;7.16;58.90;100534.63;2992361;79;21030;-66
2022/02/25 16:20:20;;;;;;;13.08;6.55;;;;;;;7.00;59.04;100534.76;2932145;81;21021;-64
2022/02/25 16:24:22;;;;;;;11.05;6.58;;;;;;;6.79;58.96;100531.66;2943611;80;21034;-63
2022/02/25 16:28:24;;;;;;;11.53;4.92;;;;;;;6.69;59.79;100543.27;2965802;79;21073;-63
2022/02/25 16:32:25;;;;;;;5.08;3.45;;;;;;;6.56;60.64;100544.50;3003843;78;21058;-64
2022/02/25 16:36:27;;;;;;;5.83;3.27;;;;;;;6.47;60.47;100552.97;2972710;78;21412;-63
2022/02/25 16:40:30;;;;;;;5.33;3.02;;;;;;;6.39;61.07;100548.17;2971087;80;20995;-64
2022/02/25 16:44:32;;;;;;;3.08;2.58;;;;;;;6.30;60.88;100558.82;2955947;80;21000;-64
2022/02/25 16:48:33;;;;;;;7.75;2.58;;;;;;;6.23;61.07;100560.11;2971022;80;21019;-64
2022/02/25 16:52:37;;;;;;;4.40;3.35;;;;;;;6.13;61.55;100561.12;2971553;80;30694;-64
2022/02/25 16:56:41;;;;;;;13.40;3.02;;;;;;;6.04;62.07;100565.15;2924250;80;21030;-64
2022/02/25 17:00:44;;;;;;;8.13;4.00;;;;;;;5.97;62.80;100570.39;2908736;82;21038;-64
2022/02/25 17:04:47;;;;;;;5.08;3.72;;;;;;;5.90;63.26;100572.53;2855780;83;21558;-64
2022/02/25 17:08:49;;;;;;;8.48;5.05;;;;;;;5.83;63.88;100574.66;2855493;83;21074;-64
2022/02/25 17:12:51;;;;;;;6.17;3.72;;;;;;;5.80;63.46;100588.05;2855235;83;21019;-64
2022/02/25 17:16:52;;;;;;;7.72;4.17;;;;;;;5.79;64.17;100592.95;2873116;82;21050;-64
2022/02/25 17:20:54;;;;;;;4.60;3.33;;;;;;;5.83;64.65;100601.06;2873077;83;21113;-64
2022/02/25 17:24:56;;;;;;;5.03;3.90;;;;;;;5.90;65.21;100595.45;2909505;80;21061;-64
2022/02/25 17:28:57;;;;;;;6.37;2.92;;;;;;;5.90;65.04;100603.37;2933574;80;21497;-67
2022/02/25 17:33:01;;;;;;;7.42;3.33;;;;;;;5.93;65.14;100601.88;2935275;80;21101;-67
2022/02/25 17:37:04;;;;;;;9.05;4.55;;;;;;;5.89;64.69;100600.33;2936822;80;21066;-67
2022/02/25 17:41:06;;;;;;;6.65;3.60;;;;;;;5.95;64.43;100608.75;2939511;80;21034;-67
2022/02/25 17:45:10;;;;;;;9.65;5.85;;;;;;;6.02;63.67;100611.92;2938773;80;21646;-67
2022/02/25 17:49:13;;;;;;;10.43;5.87;;;;;;;6.08;63.34;100613.37;2948172;80;21067;-67
2022/02/25 17:53:15;;;;;;;15.28;6.37;;;;;;;6.14;63.24;100617.83;2936919;80;21680;-66
2022/02/25 17:57:16;;;;;;;7.55;4.80;;;;;;;6.20;63.05;100611.34;2926550;81;21042;-66
2022/02/25 18:01:18;;;;;;;10.18;5.05;;;;;;;6.25;62.53;100618.53;3016947;79;21086;-66
2022/02/25 18:05:19;;;;;;;5.12;3.20;;;;;;;6.34;62.67;100617.14;3014551;79;21038;-67
2022/02/25 18:09:23;;;;;;;5.87;3.65;;;;;;;6.37;62.71;100619.59;2921701;81;20979;-66
2022/02/25 18:13:26;;;;;;;5.33;3.02;;;;;;;6.40;63.03;100634.43;2982879;78;21039;-67
2022/02/25 18:17:28;;;;;;;6.95;2.65;;;;;;;6.42;63.40;100634.70;2977643;79;21018;-66
2022/02/25 18:21:30;;;;;;;3.95;2.33;;;;;;;6.41;63.44;100633.00;2983280;79;21105;-67
2022/02/25 18:25:31;;;;;;;7.28;3.25;;;;;;;6.42;64.04;100645.75;2982699;79;21014;-66
2022/02/25 18:29:34;;;;;;;5.15;3.02;;;;;;;6.38;64.38;100647.72;2982821;79;21018;-66
2022/02/25 18:33:37;;;;;;;4.80;2.72;;;;;;;6.39;64.40;100645.45;2973408;79;21068;-65
2022/02/25 18:37:38;;;;;;;4.47;2.80;;;;;;;6.41;64.31;100662.06;2954254;79;21021;-65
2022/02/25 18:41:40;;;;;;;5.95;3.47;;;;;;;6.41;64.94;100666.52;2962671;79;20996;-67
2022/02/25 18:45:43;;;;;;;4.90;2.65;;;;;;;6.38;65.48;100662.25;3001985;79;21037;-67
2022/02/25 18:49:46;;;;;;;9.40;4.42;;;;;;;6.30;66.80;100663.18;2982795;79;21036;-67
2022/02/25 18:53:48;;;;;;;17.10;9.58;;;;;;;6.13;66.65;100675.56;2983000;78;21028;-68
2022/02/25 18:57:49;;;;;;;6.33;3.30;;;;;;;5.99;64.79;100679.41;2980761;78;21003;-68
2022/02/25 19:01:51;;;;;;;9.73;5.30;;;;;;;5.97;63.12;100685.26;2981758;78;21065;-67
2022/02/25 19:05:53;;;;;;;4.10;2.12;;;;;;;6.05;64.15;100694.94;2978797;78;21375;-67
2022/02/25 19:09:54;;;;;;;5.60;2.67;;;;;;;5.95;65.61;100693.73;2931420;79;21026;-67
2022/02/25 19:13:56;;;;;;;2.95;2.65;;;;;;;5.84;67.53;100707.05;2997023;79;21086;-67
2022/02/25 19:17:57;;;;;;;4.30;3.30;;;;;;;5.88;68.69;100705.11;2979708;79;20994;-67